Time;durP1;ratioP1;P1;durP2;ratioP2;P2;SDS_P1;SDS_P2;PMS_P1;PMS_P2;Temp;Humidity;BMP_temperature;BMP_pressure;BME280_temperature;BME280_humidity;BME280_pressure;Samples;Min_cycle;Max_cycle;Signal;HPM_P1;HPM_P2
2024/03/17 00:03:22;;;;;;;13.63;6.40;;;7.20;99.90;;;;;;5340596;23;21420;-80
2024/03/17 00:06:02;;;;;;;11.23;7.03;;;7.10;99.90;;;;;;4809000;29;20495;-81
2024/03/17 00:08:52;;;;;;;11.50;8.10;;;7.10;99.90;;;;;;4825569;29;20470;-80
2024/03/17 00:11:18;;;;;;;13.27;7.67;;;7.10;99.90;;;;;;4853805;29;20423;-81
2024/03/17 00:14:08;;;;;;;9.67;7.57;;;7.10;99.90;;;;;;4854293;29;20414;-81
2024/03/17 00:19:26;;;;;;;10.27;7.33;;;7.00;99.90;;;;;;3931825;27;20485;-80
2024/03/17 00:21:59;;;;;;;12.40;8.23;;;7.00;99.90;;;;;;4833749;29;20472;-78
2024/03/17 00:24:34;;;;;;;12.30;7.60;;;6.90;99.90;;;;;;4853572;29;20434;-80
2024/03/17 00:27:13;;;;;;;11.63;8.20;;;6.90;99.90;;;;;;4842732;29;20534;-79
2024/03/17 00:29:40;;;;;;;12.17;8.23;;;6.90;99.90;;;;;;4815441;29;20487;-79
2024/03/17 00:32:08;;;;;;;11.50;7.83;;;6.90;99.90;;;;;;4837318;29;20449;-78
2024/03/17 00:34:33;;;;;;;14.20;9.30;;;6.80;99.90;;;;;;4838021;29;20414;-78
2024/03/17 00:37:00;;;;;;;17.63;9.33;;;6.80;99.90;;;;;;4830350;29;20543;-80
2024/03/17 00:39:32;;;;;;;10.53;8.63;;;6.80;99.90;;;;;;4852547;29;20193;-79
2024/03/17 00:41:58;;;;;;;10.40;8.40;;;6.70;99.90;;;;;;4818396;29;20454;-79
2024/03/17 00:44:27;;;;;;;15.40;9.17;;;6.70;99.90;;;;;;4828337;29;20471;-80
2024/03/17 00:46:54;;;;;;;14.33;9.53;;;6.70;99.90;;;;;;4833837;29;20217;-79
2024/03/17 00:49:27;;;;;;;13.20;9.23;;;6.60;99.90;;;;;;4804238;29;20440;-79
2024/03/17 00:51:53;;;;;;;12.30;8.97;;;6.60;99.90;;;;;;4827122;29;20435;-79
2024/03/17 00:54:19;;;;;;;13.60;9.27;;;6.60;99.90;;;;;;4843221;29;20525;-78
2024/03/17 00:56:51;;;;;;;16.03;9.03;;;6.60;99.90;;;;;;4840010;29;20451;-78
2024/03/17 00:59:18;;;;;;;18.90;9.90;;;6.60;99.90;;;;;;4811076;29;20265;-79
2024/03/17 01:01:44;;;;;;;11.47;8.77;;;6.60;99.90;;;;;;4803224;29;20422;-80
2024/03/17 01:04:18;;;;;;;14.03;9.10;;;6.60;99.90;;;;;;4840945;29;20458;-80
2024/03/17 01:06:44;;;;;;;13.33;9.43;;;6.60;99.90;;;;;;4813254;29;20471;-78
2024/03/17 01:09:11;;;;;;;11.70;9.37;;;6.60;99.90;;;;;;4843936;29;20446;-79
2024/03/17 01:11:38;;;;;;;12.00;9.07;;;6.50;99.90;;;;;;4836011;29;20204;-79
2024/03/17 01:14:07;;;;;;;14.63;11.10;;;6.50;99.90;;;;;;4841738;29;20428;-78
2024/03/17 01:16:35;;;;;;;15.10;10.20;;;6.50;99.90;;;;;;4916816;24;20471;-79
2024/03/17 01:19:04;;;;;;;14.33;9.60;;;6.50;99.90;;;;;;4804285;29;20446;-82
2024/03/17 01:21:32;;;;;;;15.77;10.13;;;6.50;99.90;;;;;;4850256;29;20411;-77
2024/03/17 01:23:58;;;;;;;11.23;8.50;;;6.40;99.90;;;;;;4850034;29;20447;-78
2024/03/17 01:26:36;;;;;;;11.47;8.30;;;6.40;99.90;;;;;;4819860;29;20225;-79
2024/03/17 01:29:08;;;;;;;13.33;9.00;;;6.40;99.90;;;;;;4813535;29;20493;-79
2024/03/17 01:31:42;;;;;;;13.93;9.00;;;6.30;99.90;;;;;;4843518;29;20446;-78
2024/03/17 01:34:08;;;;;;;12.60;7.70;;;6.30;99.90;;;;;;4843633;29;20458;-77
2024/03/17 01:36:33;;;;;;;11.97;8.80;;;6.30;99.90;;;;;;4863022;29;20474;-78
2024/03/17 01:39:00;;;;;;;16.87;9.97;;;6.20;99.90;;;;;;4855500;29;20228;-80
2024/03/17 01:41:25;;;;;;;11.13;7.63;;;6.20;99.90;;;;;;4849344;29;20190;-79
2024/03/17 01:43:52;;;;;;;13.80;9.00;;;6.20;99.90;;;;;;4863752;29;20418;-79
2024/03/17 01:46:20;;;;;;;11.67;8.10;;;6.10;99.90;;;;;;4850040;29;20498;-79
2024/03/17 01:48:48;;;;;;;12.00;8.37;;;6.10;99.90;;;;;;4836878;29;20216;-77
2024/03/17 01:51:19;;;;;;;10.83;8.47;;;6.00;99.90;;;;;;4852137;29;20391;-78
2024/03/17 01:53:46;;;;;;;10.70;7.67;;;6.00;99.90;;;;;;4836044;29;20410;-78
2024/03/17 01:56:13;;;;;;;11.77;8.63;;;6.00;99.90;;;;;;4827883;29;20458;-80
2024/03/17 01:58:41;;;;;;;10.17;7.70;;;5.90;99.90;;;;;;4831574;29;20431;-78
2024/03/17 02:01:07;;;;;;;12.83;7.70;;;5.90;99.90;;;;;;4849472;29;20443;-77
2024/03/17 02:03:34;;;;;;;10.17;8.23;;;5.90;99.90;;;;;;4854996;29;20422;-78
2024/03/17 02:06:00;;;;;;;16.27;8.37;;;5.90;99.90;;;;;;4834988;29;20285;-79
2024/03/17 02:08:26;;;;;;;10.67;8.40;;;5.80;99.90;;;;;;4853679;29;20458;-79
2024/03/17 02:10:54;;;;;;;10.53;8.30;;;5.80;99.90;;;;;;4861821;29;20426;-78
2024/03/17 02:13:21;;;;;;;15.93;7.90;;;5.80;99.90;;;;;;4853336;29;20418;-77
2024/03/17 02:15:48;;;;;;;12.23;8.50;;;5.80;99.90;;;;;;4839809;29;20443;-80
2024/03/17 02:18:14;;;;;;;13.03;8.33;;;5.80;99.90;;;;;;4876529;29;20466;-78
2024/03/17 02:20:55;;;;;;;11.23;8.27;;;5.70;99.90;;;;;;4870865;29;20514;-77
2024/03/17 02:23:21;;;;;;;8.60;7.40;;;5.70;99.90;;;;;;4844836;29;20205;-77
2024/03/17 02:25:47;;;;;;;11.63;7.63;;;5.70;99.90;;;;;;4852663;29;20823;-78
2024/03/17 02:28:13;;;;;;;15.33;8.83;;;5.60;99.90;;;;;;4848510;29;20944;-77
2024/03/17 02:30:39;;;;;;;12.17;7.67;;;5.60;99.90;;;;;;4874777;29;20468;-77
2024/03/17 02:33:05;;;;;;;17.67;8.10;;;5.60;99.90;;;;;;4838025;29;20201;-77
2024/03/17 02:35:30;;;;;;;11.30;9.50;;;5.50;99.90;;;;;;4826820;29;20197;-80
2024/03/17 02:37:56;;;;;;;12.67;8.73;;;5.50;99.90;;;;;;4814711;29;20433;-79
2024/03/17 02:40:23;;;;;;;10.50;8.10;;;5.50;99.90;;;;;;4822007;29;20215;-79
2024/03/17 02:42:48;;;;;;;11.60;8.47;;;5.40;99.90;;;;;;4852887;29;20549;-78
2024/03/17 02:45:15;;;;;;;11.80;8.60;;;5.40;99.90;;;;;;4840115;29;20431;-77
2024/03/17 02:47:41;;;;;;;12.30;8.00;;;5.40;99.90;;;;;;4865483;29;20515;-76
2024/03/17 02:50:09;;;;;;;13.10;8.60;;;5.40;99.90;;;;;;4861711;29;20433;-77
2024/03/17 02:52:35;;;;;;;11.53;9.40;;;5.30;99.90;;;;;;4856089;29;20176;-76
2024/03/17 02:55:00;;;;;;;14.77;9.07;;;5.30;99.90;;;;;;4869104;29;20433;-77
2024/03/17 02:57:30;;;;;;;16.27;8.50;;;5.30;99.90;;;;;;4838510;29;20247;-77
2024/03/17 02:59:56;;;;;;;11.90;9.50;;;5.30;99.90;;;;;;4835021;29;20203;-78
2024/03/17 03:02:22;;;;;;;12.60;8.97;;;5.30;99.90;;;;;;4869437;29;20414;-78
2024/03/17 03:04:48;;;;;;;14.40;10.40;;;5.30;99.90;;;;;;4862910;29;20180;-77
2024/03/17 03:07:14;;;;;;;15.43;10.40;;;5.30;99.90;;;;;;4861257;29;20462;-76
2024/03/17 03:09:40;;;;;;;12.40;9.10;;;5.30;99.90;;;;;;4870705;29;20425;-77
2024/03/17 03:12:07;;;;;;;14.80;9.07;;;5.30;99.90;;;;;;4858578;29;20188;-77
2024/03/17 03:14:33;;;;;;;13.80;9.00;;;5.30;99.90;;;;;;4862359;29;20287;-76
2024/03/17 03:17:00;;;;;;;12.00;9.97;;;5.20;99.90;;;;;;4838485;29;20470;-78
2024/03/17 03:19:27;;;;;;;17.47;11.07;;;5.20;99.90;;;;;;4843024;29;20451;-78
2024/03/17 03:21:53;;;;;;;12.27;8.70;;;5.20;99.90;;;;;;4859623;29;20482;-77
2024/03/17 03:24:19;;;;;;;14.13;8.83;;;5.20;99.90;;;;;;4858626;29;20440;-76
2024/03/17 03:26:44;;;;;;;10.57;8.03;;;5.20;99.90;;;;;;4846718;29;20455;-76
2024/03/17 03:29:11;;;;;;;12.47;8.87;;;5.20;99.90;;;;;;4844808;29;20329;-78
2024/03/17 03:31:39;;;;;;;10.70;8.23;;;5.10;99.90;;;;;;4866465;29;20479;-80
2024/03/17 03:34:07;;;;;;;17.47;9.83;;;5.10;99.90;;;;;;4846688;29;20434;-77
2024/03/17 03:36:38;;;;;;;15.33;9.87;;;5.10;99.90;;;;;;4835416;29;20541;-77
2024/03/17 03:39:04;;;;;;;12.47;8.47;;;5.10;99.90;;;;;;4847658;29;20431;-76
2024/03/17 03:41:30;;;;;;;9.60;8.07;;;5.00;99.90;;;;;;4840309;29;20427;-76
2024/03/17 03:43:56;;;;;;;12.73;8.37;;;5.00;99.90;;;;;;4836456;29;20436;-77
2024/03/17 03:46:22;;;;;;;14.10;8.20;;;5.00;99.90;;;;;;4819941;29;20482;-77
2024/03/17 03:48:47;;;;;;;11.53;8.10;;;4.90;99.90;;;;;;4822624;29;20252;-77
2024/03/17 03:51:14;;;;;;;11.07;8.43;;;4.90;99.90;;;;;;4810427;29;20202;-76
2024/03/17 03:53:39;;;;;;;12.93;8.67;;;4.90;99.90;;;;;;4806992;29;20205;-77
2024/03/17 03:56:06;;;;;;;14.23;8.90;;;4.90;99.90;;;;;;4834752;29;20511;-76
2024/03/17 03:58:35;;;;;;;11.80;8.30;;;4.80;99.90;;;;;;4845086;29;20166;-77
2024/03/17 04:01:05;;;;;;;10.60;7.63;;;4.90;99.90;;;;;;4813578;29;20455;-77
2024/03/17 04:03:32;;;;;;;13.47;8.57;;;4.80;99.90;;;;;;4818761;29;20438;-77
2024/03/17 04:06:07;;;;;;;14.27;8.80;;;4.90;99.90;;;;;;4834066;29;20479;-77
2024/03/17 04:08:34;;;;;;;13.07;8.40;;;4.90;99.90;;;;;;4840246;29;20455;-77
2024/03/17 04:11:01;;;;;;;9.03;6.67;;;4.90;99.90;;;;;;4828632;29;20424;-78
2024/03/17 04:13:29;;;;;;;10.10;7.30;;;4.90;99.90;;;;;;4840428;29;20465;-78
2024/03/17 04:15:59;;;;;;;9.37;7.20;;;4.90;99.90;;;;;;4836189;29;20493;-77
2024/03/17 04:18:26;;;;;;;8.17;6.83;;;4.90;99.90;;;;;;4864271;29;20521;-76
2024/03/17 04:20:52;;;;;;;9.93;8.70;;;4.90;99.90;;;;;;4829249;29;20432;-78
2024/03/17 04:23:22;;;;;;;12.77;8.37;;;4.90;99.90;;;;;;4879841;29;20466;-75
2024/03/17 04:25:50;;;;;;;11.47;8.57;;;4.90;99.90;;;;;;4865173;29;20496;-76
2024/03/17 04:28:16;;;;;;;9.77;8.00;;;5.00;99.90;;;;;;4863767;29;20476;-76
2024/03/17 04:30:45;;;;;;;12.27;8.93;;;5.00;99.90;;;;;;4860538;29;20451;-77
2024/03/17 04:33:11;;;;;;;14.93;8.53;;;5.10;99.90;;;;;;4846813;29;20449;-78
2024/03/17 04:35:38;;;;;;;10.57;7.43;;;5.10;99.90;;;;;;4868874;29;20422;-77
2024/03/17 04:38:05;;;;;;;13.30;8.70;;;5.10;99.90;;;;;;4855252;29;20422;-77
2024/03/17 04:40:39;;;;;;;9.73;8.23;;;5.20;99.90;;;;;;4874288;29;20581;-77
2024/03/17 04:43:05;;;;;;;9.87;7.33;;;5.20;99.90;;;;;;4847461;29;20499;-77
2024/03/17 04:45:30;;;;;;;11.97;8.97;;;5.30;99.90;;;;;;4850716;29;20433;-76
2024/03/17 04:47:56;;;;;;;13.80;8.60;;;5.30;99.90;;;;;;4846232;29;20236;-76
2024/03/17 04:50:22;;;;;;;9.50;8.40;;;5.40;99.90;;;;;;4873042;29;20501;-77
2024/03/17 04:52:48;;;;;;;11.50;8.17;;;5.40;99.90;;;;;;4864771;29;20176;-76
2024/03/17 04:55:16;;;;;;;13.10;7.30;;;5.40;99.90;;;;;;4865430;29;20208;-77
2024/03/17 04:57:43;;;;;;;10.43;7.80;;;5.40;99.90;;;;;;4866053;29;20502;-76
2024/03/17 05:00:11;;;;;;;14.57;8.63;;;5.40;99.90;;;;;;4858242;29;20465;-77
2024/03/17 05:02:37;;;;;;;11.70;8.07;;;5.40;99.90;;;;;;4867836;29;20450;-78
2024/03/17 05:05:05;;;;;;;10.60;7.87;;;5.40;99.90;;;;;;4877028;29;20472;-76
2024/03/17 05:07:31;;;;;;;10.30;7.50;;;5.30;99.90;;;;;;4854766;29;20480;-78
2024/03/17 05:09:57;;;;;;;10.10;8.03;;;5.30;99.90;;;;;;4876791;29;20522;-78
2024/03/17 05:12:23;;;;;;;10.13;7.80;;;5.20;99.90;;;;;;4865590;29;20198;-77
2024/03/17 05:14:48;;;;;;;7.70;6.40;;;5.20;99.90;;;;;;4873665;29;20199;-77
2024/03/17 05:17:14;;;;;;;9.20;7.03;;;5.20;99.90;;;;;;4850428;29;20254;-76
2024/03/17 05:19:40;;;;;;;9.43;6.90;;;5.20;99.90;;;;;;4834975;29;20201;-77
2024/03/17 05:22:06;;;;;;;10.50;7.17;;;5.20;99.90;;;;;;4840633;29;20177;-77
2024/03/17 05:24:31;;;;;;;8.00;6.47;;;5.10;99.90;;;;;;4865506;29;20192;-75
2024/03/17 05:26:57;;;;;;;8.83;6.40;;;5.10;99.90;;;;;;4847532;29;20217;-78
2024/03/17 05:29:23;;;;;;;6.77;5.70;;;5.00;99.90;;;;;;4855208;29;20249;-76
2024/03/17 05:31:49;;;;;;;9.10;6.47;;;5.00;99.90;;;;;;4847213;29;20186;-77
2024/03/17 05:34:17;;;;;;;10.20;6.33;;;5.00;99.90;;;;;;4856164;29;20188;-77
2024/03/17 05:36:43;;;;;;;7.77;6.20;;;5.00;99.90;;;;;;4869826;29;20445;-76
2024/03/17 05:39:09;;;;;;;11.47;6.77;;;5.00;99.90;;;;;;4857804;29;20444;-76
2024/03/17 05:41:35;;;;;;;10.77;6.40;;;5.00;99.90;;;;;;4853010;29;20176;-76
2024/03/17 05:44:03;;;;;;;14.13;7.00;;;5.00;99.90;;;;;;4867390;29;20213;-76
2024/03/17 05:46:29;;;;;;;13.43;7.27;;;5.00;99.90;;;;;;4860011;29;20441;-77
2024/03/17 05:48:56;;;;;;;10.90;6.90;;;5.00;99.90;;;;;;4852030;29;20467;-76
2024/03/17 05:51:22;;;;;;;14.47;6.97;;;4.90;99.90;;;;;;4825880;29;20409;-78
2024/03/17 05:53:48;;;;;;;10.97;7.80;;;5.00;99.90;;;;;;4833779;29;20445;-77
2024/03/17 05:56:15;;;;;;;8.97;6.40;;;5.00;99.90;;;;;;4874207;29;20454;-77
2024/03/17 05:58:42;;;;;;;10.23;6.97;;;5.00;99.90;;;;;;4843510;29;20204;-77
2024/03/17 06:01:08;;;;;;;15.20;7.70;;;5.10;99.90;;;;;;4851797;29;20625;-76
2024/03/17 06:03:37;;;;;;;11.43;8.00;;;5.00;99.90;;;;;;4869092;29;20429;-77
2024/03/17 06:06:04;;;;;;;10.40;6.97;;;5.00;99.90;;;;;;4853707;29;20213;-76
2024/03/17 06:08:30;;;;;;;8.07;6.43;;;5.00;99.90;;;;;;4866986;29;20458;-76
2024/03/17 06:11:00;;;;;;;12.77;7.20;;;5.00;99.90;;;;;;4856356;29;20464;-76
2024/03/17 06:13:28;;;;;;;9.83;6.87;;;5.10;99.90;;;;;;4861099;29;20855;-75
2024/03/17 06:15:54;;;;;;;10.30;6.97;;;5.10;99.90;;;;;;4877191;29;20441;-77
2024/03/17 06:18:20;;;;;;;12.60;6.97;;;5.10;99.90;;;;;;4873502;29;20489;-77
2024/03/17 06:20:47;;;;;;;8.97;6.80;;;5.00;99.90;;;;;;4869719;29;20455;-78
2024/03/17 06:23:16;;;;;;;8.30;6.50;;;5.10;99.90;;;;;;4838959;29;20510;-77
2024/03/17 06:25:43;;;;;;;9.87;7.47;;;5.00;99.90;;;;;;4862346;29;20438;-76
2024/03/17 06:28:13;;;;;;;7.63;6.17;;;5.00;99.90;;;;;;4871833;29;20482;-77
2024/03/17 06:30:43;;;;;;;12.20;7.13;;;5.10;99.90;;;;;;4830877;29;20426;-76
2024/03/17 06:33:11;;;;;;;10.47;6.20;;;5.10;99.90;;;;;;4854257;29;20436;-76
2024/03/17 06:35:37;;;;;;;9.97;6.93;;;5.20;99.90;;;;;;4858519;29;20429;-76
2024/03/17 06:38:03;;;;;;;8.63;6.93;;;5.20;99.90;;;;;;4842833;29;20413;-78
2024/03/17 06:40:30;;;;;;;11.00;7.00;;;5.30;99.90;;;;;;4849254;29;20442;-77
2024/03/17 06:42:56;;;;;;;11.20;7.70;;;5.30;99.90;;;;;;4833281;29;20431;-78
2024/03/17 06:45:23;;;;;;;10.20;7.97;;;5.40;99.90;;;;;;4865352;29;20440;-77
2024/03/17 06:47:48;;;;;;;10.80;7.00;;;5.50;99.90;;;;;;4879815;29;20817;-77
2024/03/17 06:50:14;;;;;;;9.47;6.90;;;5.60;99.90;;;;;;4866980;29;20434;-78
2024/03/17 06:52:40;;;;;;;10.93;7.57;;;5.60;99.90;;;;;;4832940;29;20458;-76
2024/03/17 06:55:09;;;;;;;11.03;7.40;;;5.60;99.90;;;;;;4847376;29;20217;-77
2024/03/17 06:57:34;;;;;;;9.40;7.10;;;5.70;99.90;;;;;;4856519;29;20228;-76
2024/03/17 07:00:02;;;;;;;8.93;6.67;;;5.80;99.90;;;;;;4848739;29;20418;-77
2024/03/17 07:02:33;;;;;;;8.63;6.17;;;5.80;99.90;;;;;;4849370;29;20226;-78
2024/03/17 07:04:58;;;;;;;10.03;7.03;;;5.90;99.90;;;;;;4875922;29;20505;-78
2024/03/17 07:07:28;;;;;;;11.80;7.70;;;5.90;99.90;;;;;;4851331;29;20433;-76
2024/03/17 07:09:54;;;;;;;11.60;7.63;;;5.90;99.90;;;;;;4851289;29;20234;-77
2024/03/17 07:12:20;;;;;;;11.20;6.60;;;6.00;99.90;;;;;;4835637;29;20426;-77
2024/03/17 07:14:45;;;;;;;11.00;6.93;;;6.10;99.90;;;;;;4841493;29;20463;-76
2024/03/17 07:17:11;;;;;;;7.67;6.30;;;6.20;99.90;;;;;;4842561;29;20521;-77
2024/03/17 07:19:37;;;;;;;11.00;7.20;;;6.20;99.90;;;;;;4839626;29;20213;-77
2024/03/17 07:22:05;;;;;;;11.97;7.77;;;6.30;99.90;;;;;;4860409;29;20196;-77
2024/03/17 07:24:31;;;;;;;8.10;6.33;;;6.40;99.90;;;;;;4856849;29;20256;-78
2024/03/17 07:26:57;;;;;;;8.33;6.40;;;6.40;99.90;;;;;;4876244;29;20710;-78
2024/03/17 07:29:23;;;;;;;8.93;6.30;;;6.50;99.90;;;;;;4843620;29;20231;-77
2024/03/17 07:31:48;;;;;;;8.70;6.97;;;6.60;99.90;;;;;;4838693;29;20441;-77
2024/03/17 07:34:17;;;;;;;11.20;7.03;;;6.70;99.90;;;;;;4864827;29;20168;-78
2024/03/17 07:36:43;;;;;;;8.90;7.23;;;6.80;99.90;;;;;;4846402;29;20213;-76
2024/03/17 07:39:09;;;;;;;17.00;6.90;;;6.80;99.90;;;;;;4821849;29;20978;-78
2024/03/17 07:41:39;;;;;;;10.53;6.73;;;6.90;99.90;;;;;;4827796;29;20210;-78
2024/03/17 07:44:05;;;;;;;9.03;7.47;;;7.00;99.90;;;;;;4829485;29;20446;-78
2024/03/17 07:46:31;;;;;;;7.73;5.80;;;7.10;99.90;;;;;;4828760;29;20217;-78
2024/03/17 07:48:57;;;;;;;8.50;6.43;;;7.10;99.90;;;;;;4805979;29;20228;-76
2024/03/17 07:51:23;;;;;;;8.60;6.93;;;7.20;99.90;;;;;;4831312;29;20189;-77
2024/03/17 07:53:48;;;;;;;8.27;6.03;;;7.30;99.90;;;;;;4825066;29;20197;-79
2024/03/17 07:56:15;;;;;;;8.23;5.23;;;7.40;99.90;;;;;;4845363;29;20468;-78
2024/03/17 07:58:51;;;;;;;14.63;5.93;;;7.50;99.90;;;;;;4828641;29;20253;-78
2024/03/17 08:01:17;;;;;;;6.00;5.33;;;7.50;99.90;;;;;;4821386;29;20446;-77
2024/03/17 08:03:46;;;;;;;10.80;5.90;;;7.70;99.90;;;;;;4819072;29;20424;-78
2024/03/17 08:06:12;;;;;;;7.47;6.20;;;7.80;99.90;;;;;;4796251;30;20274;-79
2024/03/17 08:08:38;;;;;;;9.27;6.00;;;7.90;99.90;;;;;;4812170;29;20476;-78
2024/03/17 08:11:04;;;;;;;7.17;6.07;;;8.10;99.90;;;;;;4799598;29;20437;-80
2024/03/17 08:13:34;;;;;;;6.50;4.53;;;8.30;99.90;;;;;;4778693;30;20202;-79
2024/03/17 08:16:11;;;;;;;7.20;5.73;;;8.50;99.90;;;;;;4795889;29;20490;-77
2024/03/17 08:18:37;;;;;;;5.63;4.73;;;8.70;99.90;;;;;;4818622;29;20452;-77
2024/03/17 08:21:04;;;;;;;5.17;4.43;;;8.90;99.90;;;;;;4819177;29;20467;-77
2024/03/17 08:23:31;;;;;;;6.70;5.47;;;9.00;99.90;;;;;;4796468;29;20986;-77
2024/03/17 08:25:58;;;;;;;6.03;5.13;;;9.20;99.90;;;;;;4827053;29;20512;-77
2024/03/17 08:28:25;;;;;;;9.80;5.37;;;9.30;99.90;;;;;;4802862;29;20231;-78
2024/03/17 08:30:58;;;;;;;7.20;4.83;;;9.40;99.90;;;;;;4821000;29;20436;-79
2024/03/17 08:33:24;;;;;;;5.03;4.53;;;9.40;99.90;;;;;;4819801;29;20604;-77
2024/03/17 08:35:57;;;;;;;6.90;4.97;;;9.40;99.90;;;;;;4812810;29;20475;-79
2024/03/17 08:38:24;;;;;;;7.17;5.30;;;9.50;99.90;;;;;;4845997;29;20454;-79
2024/03/17 08:40:51;;;;;;;10.97;5.70;;;9.50;99.90;;;;;;4860616;29;20421;-78
2024/03/17 08:43:18;;;;;;;7.87;5.07;;;9.50;99.90;;;;;;4854987;29;20437;-79
2024/03/17 08:45:44;;;;;;;6.30;4.83;;;9.60;99.90;;;;;;4854972;29;20485;-78
2024/03/17 08:48:10;;;;;;;5.20;4.70;;;9.80;99.90;;;;;;4869205;29;20492;-78
2024/03/17 08:50:36;;;;;;;7.07;5.77;;;9.90;99.90;;;;;;4833713;29;20446;-78
2024/03/17 08:53:04;;;;;;;6.70;4.63;;;9.90;99.90;;;;;;4861243;29;20466;-79
2024/03/17 08:55:31;;;;;;;5.60;4.80;;;9.90;99.90;;;;;;4838479;29;20490;-80
2024/03/17 08:57:57;;;;;;;9.20;5.60;;;10.00;99.90;;;;;;4853601;29;20445;-79
2024/03/17 09:00:24;;;;;;;6.70;4.87;;;10.00;99.90;;;;;;4821654;29;20178;-81
2024/03/17 09:02:49;;;;;;;6.43;5.10;;;10.10;99.90;;;;;;4836843;29;20427;-81
2024/03/17 09:05:15;;;;;;;5.90;4.80;;;10.10;99.90;;;;;;4838794;29;20420;-80
2024/03/17 09:07:42;;;;;;;7.90;4.70;;;10.30;99.90;;;;;;4845584;29;20229;-79
2024/03/17 09:10:17;;;;;;;5.30;4.30;;;10.40;99.90;;;;;;4829976;29;20190;-80
2024/03/17 09:12:51;;;;;;;7.83;4.60;;;10.50;99.90;;;;;;4812361;29;20449;-79
2024/03/17 09:15:18;;;;;;;10.07;4.77;;;10.60;99.90;;;;;;4831632;29;20442;-80
2024/03/17 09:17:44;;;;;;;4.93;3.90;;;10.60;99.90;;;;;;4815655;29;20488;-79
2024/03/17 09:20:14;;;;;;;4.17;3.50;;;10.70;99.90;;;;;;4832104;29;20419;-77
2024/03/17 09:22:41;;;;;;;4.73;4.30;;;10.70;99.90;;;;;;4840968;29;20526;-79
2024/03/17 09:25:08;;;;;;;4.53;3.50;;;10.90;99.90;;;;;;4815437;29;20429;-78
2024/03/17 09:27:36;;;;;;;3.53;3.23;;;11.00;99.90;;;;;;4796094;29;20481;-79
2024/03/17 09:30:11;;;;;;;4.40;4.00;;;11.30;99.90;;;;;;4822967;29;20446;-79
2024/03/17 09:32:39;;;;;;;4.83;4.17;;;11.50;99.90;;;;;;4840494;29;20416;-78
2024/03/17 09:35:06;;;;;;;5.50;4.20;;;11.50;98.60;;;;;;4837051;29;20438;-79
2024/03/17 09:37:32;;;;;;;7.13;3.73;;;11.40;97.70;;;;;;4853060;29;20498;-79
2024/03/17 09:40:00;;;;;;;5.10;4.23;;;11.50;96.80;;;;;;4885048;29;20485;-79
2024/03/17 09:42:27;;;;;;;3.97;3.50;;;11.50;96.70;;;;;;4846592;29;20441;-80
2024/03/17 09:44:56;;;;;;;4.87;4.00;;;11.60;96.80;;;;;;4835614;29;20201;-79
2024/03/17 09:47:43;;;;;;;3.90;3.50;;;11.80;96.30;;;;;;4847294;29;20490;-80
2024/03/17 09:50:14;;;;;;;6.10;3.87;;;11.80;94.60;;;;;;4852644;29;20444;-79
2024/03/17 09:52:42;;;;;;;5.40;3.50;;;12.00;94.30;;;;;;4852105;29;20439;-78
2024/03/17 09:55:13;;;;;;;5.17;4.00;;;12.10;93.80;;;;;;4865943;29;20469;-78
2024/03/17 09:57:40;;;;;;;6.93;5.00;;;12.30;93.40;;;;;;4865750;29;20515;-82
2024/03/17 10:00:12;;;;;;;5.37;3.93;;;12.40;92.50;;;;;;4843873;29;20429;-79
2024/03/17 10:02:45;;;;;;;5.33;3.40;;;12.50;91.40;;;;;;4859354;29;20415;-79
2024/03/17 10:05:22;;;;;;;4.67;3.90;;;12.60;90.80;;;;;;4833979;29;20471;-79
2024/03/17 10:07:49;;;;;;;5.80;3.80;;;12.70;89.90;;;;;;4840245;29;20495;-78
2024/03/17 10:10:19;;;;;;;4.43;4.03;;;12.80;89.00;;;;;;4852878;29;20462;-79
2024/03/17 10:12:54;;;;;;;4.30;3.23;;;12.80;87.40;;;;;;4850387;29;20445;-79
2024/03/17 10:15:20;;;;;;;6.20;4.97;;;12.90;87.30;;;;;;4872899;29;20473;-80
2024/03/17 10:17:48;;;;;;;6.63;3.63;;;12.80;87.00;;;;;;4855795;29;20489;-79
2024/03/17 10:20:20;;;;;;;4.30;3.50;;;12.80;86.10;;;;;;4817245;29;20411;-77
2024/03/17 10:23:07;;;;;;;4.30;3.60;;;12.80;86.50;;;;;;4798907;29;20431;-78
2024/03/17 10:25:40;;;;;;;5.80;3.80;;;12.90;86.30;;;;;;4785583;30;20933;-80
2024/03/17 10:28:12;;;;;;;5.67;3.30;;;13.00;85.10;;;;;;4783852;29;20470;-79
2024/03/17 10:30:40;;;;;;;3.83;3.40;;;13.20;85.00;;;;;;4777170;29;20452;-80
2024/03/17 10:33:11;;;;;;;5.40;3.10;;;13.30;83.10;;;;;;4776559;29;20409;-78
2024/03/17 10:35:42;;;;;;;6.10;3.47;;;13.30;81.60;;;;;;4767243;30;20448;-78
2024/03/17 10:38:12;;;;;;;4.40;3.03;;;13.40;81.20;;;;;;4796363;30;20432;-79
2024/03/17 10:40:39;;;;;;;4.20;3.77;;;13.60;80.40;;;;;;4793160;30;20465;-79
2024/03/17 10:43:06;;;;;;;4.63;3.40;;;13.70;78.50;;;;;;4782477;30;20436;-78
2024/03/17 10:45:38;;;;;;;5.77;3.30;;;13.70;79.50;;;;;;4792965;30;20406;-79
2024/03/17 10:48:09;;;;;;;5.90;3.20;;;13.80;77.50;;;;;;4769812;29;20486;-79
2024/03/17 10:50:39;;;;;;;5.07;3.50;;;13.70;77.20;;;;;;4789196;29;20470;-78
2024/03/17 10:53:11;;;;;;;3.40;3.10;;;13.70;76.40;;;;;;4806405;29;20465;-78
2024/03/17 10:55:50;;;;;;;3.33;3.00;;;13.80;76.60;;;;;;4807033;29;20458;-80
2024/03/17 10:58:37;;;;;;;4.20;3.47;;;13.80;76.50;;;;;;4849803;29;20459;-80
2024/03/17 11:01:05;;;;;;;4.60;3.70;;;13.90;74.90;;;;;;4849282;24;20494;-80
2024/03/17 11:03:45;;;;;;;3.93;3.20;;;13.80;75.30;;;;;;4854482;29;20423;-81
2024/03/17 11:06:29;;;;;;;3.83;2.90;;;13.80;76.00;;;;;;4835899;29;20487;-81
2024/03/17 11:08:56;;;;;;;4.90;3.00;;;13.90;76.70;;;;;;4820161;29;20486;-78
2024/03/17 11:11:39;;;;;;;7.03;4.10;;;14.00;75.80;;;;;;4822525;29;20435;-78
2024/03/17 11:14:23;;;;;;;5.97;3.33;;;14.10;75.00;;;;;;4849152;29;20442;-80
2024/03/17 11:16:50;;;;;;;3.80;3.40;;;14.10;74.80;;;;;;4835160;29;20510;-82
2024/03/17 11:19:18;;;;;;;4.73;3.33;;;14.10;74.60;;;;;;4856366;29;20467;-80
2024/03/17 11:21:44;;;;;;;7.53;3.10;;;14.00;74.50;;;;;;4826818;29;20434;-79
2024/03/17 11:24:21;;;;;;;7.80;3.07;;;14.00;74.70;;;;;;4980294;23;20490;-79
2024/03/17 11:26:47;;;;;;;7.43;3.43;;;14.10;74.60;;;;;;4839994;29;20213;-81
2024/03/17 11:29:32;;;;;;;5.53;3.93;;;14.10;74.90;;;;;;4813851;29;20499;-79
2024/03/17 11:32:28;;;;;;;5.83;3.40;;;14.30;74.70;;;;;;4811798;29;20212;-79
2024/03/17 11:35:18;;;;;;;5.70;3.40;;;14.40;73.30;;;;;;4801891;29;20492;-78
2024/03/17 11:37:44;;;;;;;5.37;3.50;;;14.30;74.60;;;;;;4835232;29;20463;-79
2024/03/17 11:40:26;;;;;;;3.73;3.17;;;14.40;74.00;;;;;;4833664;29;20577;-80
2024/03/17 11:43:07;;;;;;;6.00;3.70;;;14.50;74.20;;;;;;4831163;29;20190;-81
2024/03/17 11:45:33;;;;;;;4.03;3.20;;;14.70;72.40;;;;;;4824752;29;20458;-79
2024/03/17 11:48:06;;;;;;;6.23;4.40;;;14.70;73.00;;;;;;4846715;29;20474;-78
2024/03/17 11:50:38;;;;;;;3.20;2.87;;;14.80;72.40;;;;;;4847199;29;20534;-80
2024/03/17 11:53:20;;;;;;;5.37;3.60;;;14.80;71.80;;;;;;4833661;29;20472;-80
2024/03/17 11:55:49;;;;;;;4.70;3.10;;;14.80;71.70;;;;;;4805671;29;20506;-78
2024/03/17 11:58:16;;;;;;;4.40;3.47;;;14.80;71.50;;;;;;4830753;29;20511;-80
2024/03/17 12:00:42;;;;;;;3.93;2.77;;;14.90;71.10;;;;;;4835904;29;20408;-79
2024/03/17 12:03:12;;;;;;;3.30;2.90;;;14.90;71.40;;;;;;4816688;29;20434;-80
2024/03/17 12:05:40;;;;;;;5.10;4.00;;;15.00;71.40;;;;;;4832155;29;20207;-78
2024/03/17 12:08:21;;;;;;;4.63;3.60;;;15.20;70.30;;;;;;4815472;29;20448;-79
2024/03/17 12:10:51;;;;;;;4.03;2.93;;;15.10;70.20;;;;;;4802207;29;20418;-79
2024/03/17 12:13:17;;;;;;;5.90;3.90;;;14.90;70.30;;;;;;4830321;29;20509;-80
2024/03/17 12:15:43;;;;;;;4.47;3.47;;;14.80;70.40;;;;;;4844462;29;20446;-79
2024/03/17 12:18:20;;;;;;;7.60;3.67;;;14.70;71.10;;;;;;4796090;29;20233;-80
2024/03/17 12:20:48;;;;;;;5.73;3.50;;;14.70;70.90;;;;;;4812780;29;20183;-80
2024/03/17 12:26:56;;;;;;;8.50;3.67;;;14.70;71.10;;;;;;4865047;23;21046;-79
2024/03/17 12:29:41;;;;;;;5.63;3.40;;;14.70;71.10;;;;;;4846661;29;20485;-79
2024/03/17 12:32:22;;;;;;;5.40;3.90;;;14.70;70.90;;;;;;4818851;29;20458;-80
2024/03/17 12:34:57;;;;;;;8.70;3.80;;;14.70;70.70;;;;;;4858240;29;20474;-80
2024/03/17 12:37:33;;;;;;;9.67;3.67;;;14.70;70.50;;;;;;4818919;29;20464;-82
2024/03/17 12:40:01;;;;;;;4.67;4.00;;;14.80;70.00;;;;;;4815590;29;20446;-80
2024/03/17 12:42:28;;;;;;;4.40;2.90;;;14.80;69.90;;;;;;4804085;29;20430;-81
2024/03/17 12:45:03;;;;;;;4.60;3.20;;;14.80;70.80;;;;;;4818611;29;20487;-82
2024/03/17 12:47:48;;;;;;;4.17;2.40;;;14.90;70.80;;;;;;4835329;29;20477;-79
2024/03/17 12:50:14;;;;;;;3.90;3.20;;;15.00;70.60;;;;;;4861311;29;20411;-79
2024/03/17 12:52:40;;;;;;;4.50;3.07;;;15.10;69.70;;;;;;4851666;29;20467;-80
2024/03/17 13:01:04;;;;;;;4.13;3.00;;;15.10;67.80;;;;;;4856587;29;20438;-79
2024/03/17 13:03:35;;;;;;;3.93;2.97;;;15.10;68.60;;;;;;4826481;29;20459;-80
2024/03/17 13:06:06;;;;;;;5.03;3.60;;;15.20;68.30;;;;;;4850498;29;20442;-80
2024/03/17 13:08:35;;;;;;;3.67;2.93;;;15.30;68.40;;;;;;4842282;29;20479;-79
2024/03/17 13:11:05;;;;;;;3.53;2.60;;;15.30;68.40;;;;;;4866832;29;20441;-79